Terminal Aerodrome Forecast
Issued by NWS Charleston, WV

Current Version | Previous Version | Graphics & Text | Print | Product List | Glossary On
Versions: 1 2 3 4 5 6 7 8 9 10 11 12 13 14 15 16 17 18 19 20 21 22 23 24 25 26 27 28
000
FTUS41 KRLX 232300 RRA
TAFPKB
TAF
KPKB 232347Z 2400/2424 02007KT 6SM -RASN OVC045
     FM240300 04004KT P6SM OVC040
     FM240700 03003KT P6SM OVC025
     FM241300 04002KT P6SM BKN040
     FM241700 VRB03KT P6SM SCT040=

USA.gov is the U.S. government's official web portal to all federal, state and local government web resources and services.